Time;durP1;ratioP1;P1;durP2;ratioP2;P2;SDS_P1;SDS_P2;PMS_P1;PMS_P2;Temp;Humidity;BMP_temperature;BMP_pressure;BME280_temperature;BME280_humidity;BME280_pressure;Samples;Min_cycle;Max_cycle;Signal;HPM_P1;HPM_P2
2023/12/25 00:00:24;;;;;;;1.60;1.10;;;;;;;6.11;87.15;95744.64;104959;1258;102298;-76
2023/12/25 00:03:12;;;;;;;1.40;1.10;;;;;;;6.09;87.80;95743.17;105094;1256;99435;-76
2023/12/25 00:05:39;;;;;;;3.80;2.20;;;;;;;6.08;87.97;95742.77;105002;1256;100052;-77
2023/12/25 00:08:07;;;;;;;2.90;1.10;;;;;;;6.07;88.17;95736.80;104937;1257;97489;-76
2023/12/25 00:10:35;;;;;;;2.40;1.30;;;;;;;6.07;88.46;95739.36;105040;1257;97521;-77
2023/12/25 00:13:03;;;;;;;1.70;1.00;;;;;;;6.05;88.58;95747.41;104956;1257;109873;-77
2023/12/25 00:15:31;;;;;;;1.70;0.90;;;;;;;6.07;88.57;95748.80;104928;1253;100315;-78
2023/12/25 00:17:58;;;;;;;0.90;0.60;;;;;;;6.09;88.68;95751.29;105029;1258;100016;-79
2023/12/25 00:20:26;;;;;;;1.00;0.60;;;;;;;6.12;88.40;95758.77;105097;1269;96677;-72
2023/12/25 00:22:54;;;;;;;3.60;2.10;;;;;;;6.13;88.56;95756.61;105300;1254;98396;-73
2023/12/25 00:25:22;;;;;;;3.30;2.10;;;;;;;6.14;88.80;95753.84;105189;1256;101189;-72
2023/12/25 00:27:49;;;;;;;2.40;1.10;;;;;;;6.14;88.85;95760.48;105183;1254;101764;-72
2023/12/25 00:30:17;;;;;;;3.40;1.60;;;;;;;6.15;88.73;95751.24;105172;1254;99000;-72
2023/12/25 00:32:45;;;;;;;2.80;2.10;;;;;;;6.16;88.57;95744.84;105196;1254;96584;-76
2023/12/25 00:35:12;;;;;;;1.70;1.20;;;;;;;6.18;88.66;95743.44;105179;1256;97106;-77
2023/12/25 00:37:40;;;;;;;2.40;1.70;;;;;;;6.20;88.61;95749.44;105181;1254;101348;-76
2023/12/25 00:40:09;;;;;;;2.00;1.10;;;;;;;6.20;88.65;95741.98;105157;1257;100214;-75
2023/12/25 00:42:36;;;;;;;6.50;2.70;;;;;;;6.19;88.87;95738.90;105020;1256;100188;-76
2023/12/25 00:45:05;;;;;;;7.50;2.80;;;;;;;6.18;88.89;95726.38;104986;1253;97521;-75
2023/12/25 00:47:33;;;;;;;4.40;1.50;;;;;;;6.15;88.72;95711.95;105008;1256;97504;-75
2023/12/25 00:50:00;;;;;;;6.60;2.90;;;;;;;6.16;89.16;95729.45;104941;1257;101300;-75
2023/12/25 00:52:28;;;;;;;3.90;2.10;;;;;;;6.16;88.89;95730.15;104959;1257;100305;-75
2023/12/25 00:54:56;;;;;;;5.60;2.30;;;;;;;6.18;88.75;95715.56;104953;1254;98564;-74
2023/12/25 00:57:23;;;;;;;2.60;1.50;;;;;;;6.18;89.01;95715.52;104972;1257;98015;-75
2023/12/25 00:59:51;;;;;;;2.40;1.20;;;;;;;6.19;88.65;95723.64;105091;1253;97401;-80
2023/12/25 01:02:19;;;;;;;1.60;0.90;;;;;;;6.20;88.64;95731.02;104969;1257;100773;-75
2023/12/25 01:04:47;;;;;;;1.70;1.00;;;;;;;6.19;88.64;95731.30;104969;1273;100048;-75
2023/12/25 01:07:14;;;;;;;2.40;1.20;;;;;;;6.20;88.26;95737.27;104939;1257;100069;-75
2023/12/25 01:09:42;;;;;;;3.70;1.60;;;;;;;6.20;88.51;95737.60;104924;1254;96827;-75
2023/12/25 01:12:10;;;;;;;2.10;0.90;;;;;;;6.21;88.68;95738.58;104937;1257;97241;-75
2023/12/25 01:14:42;;;;;;;6.50;2.60;;;;;;;6.22;88.75;95734.50;104991;1257;101193;-74
2023/12/25 01:17:10;;;;;;;3.60;1.70;;;;;;;6.23;88.61;95734.03;104972;1254;101451;-74
2023/12/25 01:19:37;;;;;;;2.10;1.30;;;;;;;6.24;88.48;95740.46;104995;1267;99616;-75
2023/12/25 01:22:05;;;;;;;1.00;0.80;;;;;;;6.25;88.38;95745.63;104947;1257;96607;-75
2023/12/25 01:24:33;;;;;;;3.90;1.30;;;;;;;6.27;88.42;95741.34;104955;1257;97395;-75
2023/12/25 01:27:00;;;;;;;4.00;1.80;;;;;;;6.28;88.50;95748.17;104988;1256;101464;-75
2023/12/25 01:29:28;;;;;;;2.40;1.40;;;;;;;6.30;88.27;95755.13;104990;1256;101007;-75
2023/12/25 01:31:56;;;;;;;2.00;1.50;;;;;;;6.29;88.68;95763.09;105035;1253;100128;-75
2023/12/25 01:34:23;;;;;;;1.60;1.00;;;;;;;6.29;89.06;95766.73;104937;1256;96850;-75
2023/12/25 01:36:51;;;;;;;2.30;1.10;;;;;;;6.29;89.08;95761.98;105033;1256;97559;-79
2023/12/25 01:39:19;;;;;;;3.80;1.60;;;;;;;6.30;89.40;95763.86;105010;1258;102296;-70
2023/12/25 01:41:46;;;;;;;1.40;1.10;;;;;;;6.30;89.47;95762.63;104966;1252;100501;-71
2023/12/25 01:44:14;;;;;;;3.60;1.70;;;;;;;6.30;89.48;95759.33;104957;1269;98934;-71
2023/12/25 01:46:42;;;;;;;2.30;1.40;;;;;;;6.31;89.60;95766.48;104979;1257;97183;-75
2023/12/25 01:49:10;;;;;;;2.40;1.10;;;;;;;6.31;89.77;95769.70;105018;1256;97086;-77
2023/12/25 01:51:38;;;;;;;2.20;1.10;;;;;;;6.31;89.89;95768.77;104964;1257;102313;-74
2023/12/25 01:54:07;;;;;;;2.00;1.00;;;;;;;6.32;89.85;95773.95;105007;1258;101315;-75
2023/12/25 01:56:35;;;;;;;2.00;1.20;;;;;;;6.34;89.66;95772.77;104974;1257;98982;-75
2023/12/25 01:59:03;;;;;;;1.90;0.80;;;;;;;6.35;89.77;95788.42;105003;1256;96651;-74
2023/12/25 02:01:31;;;;;;;0.80;0.70;;;;;;;6.37;89.36;95786.76;104989;1256;97481;-71
2023/12/25 02:03:58;;;;;;;2.50;1.20;;;;;;;6.41;88.97;95782.84;105008;1254;102157;-71
2023/12/25 02:06:26;;;;;;;1.60;1.00;;;;;;;6.44;88.73;95787.20;104969;1257;101848;-71
2023/12/25 02:08:55;;;;;;;2.80;1.40;;;;;;;6.46;88.90;95793.03;104946;1256;99981;-70
2023/12/25 02:11:22;;;;;;;1.70;1.30;;;;;;;6.50;89.05;95793.79;104949;1256;97398;-70
2023/12/25 02:13:51;;;;;;;2.00;1.30;;;;;;;6.53;89.11;95792.77;104952;1270;97820;-71
2023/12/25 02:16:19;;;;;;;2.10;1.00;;;;;;;6.57;89.09;95795.09;105003;1257;102120;-71
2023/12/25 02:18:46;;;;;;;0.90;0.80;;;;;;;6.60;89.06;95797.45;104991;1255;101567;-71
2023/12/25 02:21:15;;;;;;;1.20;0.90;;;;;;;6.65;88.86;95796.67;104948;1256;99982;-70
2023/12/25 02:23:45;;;;;;;1.00;0.70;;;;;;;6.68;88.83;95796.96;105053;1256;97931;-71
2023/12/25 02:26:14;;;;;;;1.20;0.80;;;;;;;6.69;88.92;95795.34;104982;1256;97021;-71
2023/12/25 02:28:42;;;;;;;1.10;0.90;;;;;;;6.72;88.84;95802.81;105036;1254;102142;-70
2023/12/25 02:31:10;;;;;;;1.20;0.60;;;;;;;6.75;88.78;95789.17;104997;1270;101265;-71
2023/12/25 02:33:37;;;;;;;0.80;0.60;;;;;;;6.77;88.78;95785.50;104935;1257;98424;-71
2023/12/25 02:36:06;;;;;;;1.50;0.90;;;;;;;6.78;88.75;95787.30;104964;1257;97244;-80
2023/12/25 02:38:33;;;;;;;1.30;0.90;;;;;;;6.82;88.77;95785.52;104971;1261;97096;-71
2023/12/25 02:41:01;;;;;;;1.80;1.20;;;;;;;6.87;88.66;95779.63;104989;1256;102059;-70
2023/12/25 02:43:29;;;;;;;1.40;1.00;;;;;;;6.89;88.35;95786.48;104987;1256;100302;-71
2023/12/25 02:45:56;;;;;;;2.00;1.50;;;;;;;6.90;88.34;95781.98;104934;1269;100093;-70
2023/12/25 02:48:24;;;;;;;1.40;0.90;;;;;;;6.90;88.30;95783.76;105038;1257;96557;-70
2023/12/25 02:50:52;;;;;;;1.60;1.30;;;;;;;6.89;88.17;95775.64;104954;1258;97155;-71
2023/12/25 02:53:19;;;;;;;2.10;1.10;;;;;;;6.88;87.96;95775.52;104983;1257;99758;-71
2023/12/25 02:55:47;;;;;;;3.40;1.50;;;;;;;6.88;88.08;95778.52;105007;1256;101522;-80
2023/12/25 02:58:15;;;;;;;1.30;0.90;;;;;;;6.91;88.27;95777.52;104959;1268;99997;-79
2023/12/25 03:00:42;;;;;;;1.70;0.90;;;;;;;6.95;88.19;95765.84;104952;1257;96596;-79
2023/12/25 03:03:10;;;;;;;1.90;1.20;;;;;;;6.99;88.10;95778.56;105057;1254;96468;-75
2023/12/25 03:05:38;;;;;;;2.10;1.30;;;;;;;7.04;88.10;95781.86;105084;1256;102189;-74
2023/12/25 03:08:06;;;;;;;2.90;1.90;;;;;;;7.07;87.81;95779.06;104915;1260;101066;-75
2023/12/25 03:10:33;;;;;;;2.20;1.30;;;;;;;7.10;87.80;95774.02;104917;1257;100042;-74
2023/12/25 03:13:01;;;;;;;1.30;1.00;;;;;;;7.14;87.76;95769.33;104976;1256;97502;-71
2023/12/25 03:15:29;;;;;;;1.80;1.10;;;;;;;7.21;87.76;95765.69;104945;1258;97044;-71
2023/12/25 03:17:56;;;;;;;2.50;0.80;;;;;;;7.30;87.53;95763.08;105044;1259;102330;-71
2023/12/25 03:20:24;;;;;;;1.10;0.80;;;;;;;7.38;87.33;95768.54;104973;1253;100329;-70
2023/12/25 03:22:52;;;;;;;1.30;0.90;;;;;;;7.47;87.17;95764.56;104935;1264;98574;-70
2023/12/25 03:25:19;;;;;;;0.80;0.50;;;;;;;7.51;87.03;95765.43;104931;1256;98032;-71
2023/12/25 03:27:47;;;;;;;0.80;0.70;;;;;;;7.56;86.77;95768.67;104948;1254;97499;-70
2023/12/25 03:30:15;;;;;;;0.70;0.50;;;;;;;7.60;86.55;95769.03;104993;1254;102354;-71
2023/12/25 03:32:42;;;;;;;1.00;0.70;;;;;;;7.64;86.36;95772.50;105010;1256;101423;-74
2023/12/25 03:35:10;;;;;;;1.40;0.70;;;;;;;7.69;86.03;95776.30;104961;1257;99995;-74
2023/12/25 03:37:38;;;;;;;1.20;0.60;;;;;;;7.73;85.84;95776.79;104966;1266;97237;-75
2023/12/25 03:40:06;;;;;;;1.00;0.60;;;;;;;7.77;85.69;95786.34;104911;1253;97228;-75
2023/12/25 03:42:34;;;;;;;1.10;0.70;;;;;;;7.82;85.57;95777.60;104974;1254;102192;-76
2023/12/25 03:45:01;;;;;;;1.40;0.80;;;;;;;7.87;85.23;95777.17;104952;1256;100479;-75
2023/12/25 03:47:29;;;;;;;0.40;0.40;;;;;;;7.89;84.71;95780.16;104957;1254;99827;-81
2023/12/25 03:49:57;;;;;;;0.70;0.60;;;;;;;7.92;84.45;95783.75;104923;1257;96558;-80
2023/12/25 03:52:24;;;;;;;1.10;0.70;;;;;;;7.93;84.24;95785.64;104995;1256;97902;-79
2023/12/25 03:54:52;;;;;;;2.10;1.00;;;;;;;7.91;84.07;95793.39;104928;1269;102104;-81
2023/12/25 03:57:20;;;;;;;1.50;1.00;;;;;;;7.90;84.19;95789.19;105061;1256;101587;-81
2023/12/25 03:59:47;;;;;;;0.60;0.50;;;;;;;7.87;84.01;95785.55;104904;1259;100049;-80
2023/12/25 04:02:15;;;;;;;0.40;0.30;;;;;;;7.88;83.96;95782.95;104988;1269;97067;-75
2023/12/25 04:04:43;;;;;;;0.90;0.50;;;;;;;7.91;83.80;95778.27;104890;1256;97006;-75
2023/12/25 04:07:10;;;;;;;0.80;0.70;;;;;;;7.91;83.68;95779.67;104976;1256;102051;-75
2023/12/25 04:09:39;;;;;;;0.50;0.50;;;;;;;7.89;83.50;95770.23;104992;1257;101695;-75
2023/12/25 04:12:07;;;;;;;0.90;0.70;;;;;;;7.89;83.62;95765.61;104975;1258;99895;-74
2023/12/25 04:14:41;;;;;;;1.00;0.60;;;;;;;7.88;83.76;95772.53;104903;1256;98122;-75
2023/12/25 04:17:08;;;;;;;1.00;0.80;;;;;;;7.88;83.64;95778.98;105035;1254;97084;-71
2023/12/25 04:19:36;;;;;;;0.80;0.70;;;;;;;7.88;83.57;95784.39;104943;1257;102344;-71
2023/12/25 04:22:04;;;;;;;1.30;0.80;;;;;;;7.89;83.54;95793.23;104971;1267;100393;-70
2023/12/25 04:24:32;;;;;;;0.70;0.50;;;;;;;7.90;83.56;95798.37;104946;1257;98983;-71
2023/12/25 04:26:59;;;;;;;0.60;0.40;;;;;;;7.91;83.59;95798.44;104948;1269;96656;-71
2023/12/25 04:29:27;;;;;;;0.80;0.70;;;;;;;7.92;83.50;95801.33;104983;1256;97061;-71
2023/12/25 04:31:55;;;;;;;0.40;0.40;;;;;;;7.93;83.53;95802.63;105027;1257;102181;-75
2023/12/25 04:34:22;;;;;;;0.90;0.60;;;;;;;7.93;83.37;95807.09;104908;1257;100310;-75
2023/12/25 04:36:50;;;;;;;0.80;0.80;;;;;;;7.94;82.94;95816.30;104965;1267;98680;-74
2023/12/25 04:39:18;;;;;;;0.60;0.60;;;;;;;7.97;82.95;95818.77;104965;1256;96567;-75
2023/12/25 04:41:46;;;;;;;0.80;0.80;;;;;;;8.00;83.02;95822.05;104976;1258;97717;-75
2023/12/25 04:44:13;;;;;;;2.70;1.40;;;;;;;8.01;83.04;95827.89;104994;1254;102300;-75
2023/12/25 04:46:41;;;;;;;1.70;1.10;;;;;;;8.00;82.79;95829.07;104999;1253;101538;-70
2023/12/25 04:49:09;;;;;;;1.60;1.10;;;;;;;8.02;82.65;95828.58;104945;1254;99901;-75
2023/12/25 04:51:36;;;;;;;2.40;0.80;;;;;;;8.05;82.33;95827.79;104985;1268;97894;-74
2023/12/25 04:54:04;;;;;;;1.30;0.70;;;;;;;8.06;82.40;95830.11;104968;1259;97071;-75
2023/12/25 04:56:32;;;;;;;0.70;0.60;;;;;;;8.06;82.35;95824.86;105014;1257;101201;-75
2023/12/25 04:58:59;;;;;;;1.10;0.80;;;;;;;8.06;82.19;95827.86;104984;1256;100468;-75
2023/12/25 05:01:27;;;;;;;1.50;1.00;;;;;;;8.06;82.32;95829.36;104993;1256;100205;-75
2023/12/25 05:03:55;;;;;;;1.60;1.00;;;;;;;8.05;82.31;95828.54;104925;1256;96805;-75
2023/12/25 05:06:23;;;;;;;1.50;1.10;;;;;;;8.05;81.98;95826.77;104907;1268;97528;-75
2023/12/25 05:08:50;;;;;;;1.50;1.00;;;;;;;8.05;81.93;95827.19;104981;1256;102225;-75
2023/12/25 05:11:19;;;;;;;2.10;1.40;;;;;;;8.04;81.89;95833.94;105025;1256;101047;-71
2023/12/25 05:13:47;;;;;;;0.90;0.70;;;;;;;8.03;81.80;95840.80;104930;1254;100762;-70
2023/12/25 05:16:14;;;;;;;1.00;0.80;;;;;;;8.03;81.88;95842.52;104916;1256;97811;-75
2023/12/25 05:18:42;;;;;;;0.80;0.60;;;;;;;8.03;82.03;95851.48;104978;1256;97397;-74
2023/12/25 05:21:10;;;;;;;1.40;0.80;;;;;;;8.02;81.86;95843.18;104989;1256;102184;-75
2023/12/25 05:23:37;;;;;;;0.90;0.70;;;;;;;8.01;81.75;95837.37;104978;1257;101387;-75
2023/12/25 05:26:05;;;;;;;0.80;0.70;;;;;;;8.01;81.93;95844.72;104954;1256;99000;-75
2023/12/25 05:28:33;;;;;;;1.10;0.90;;;;;;;8.01;81.92;95850.52;104969;1256;97884;-75
2023/12/25 05:31:00;;;;;;;0.70;0.70;;;;;;;8.01;81.82;95853.79;104997;1257;97154;-75
2023/12/25 05:33:28;;;;;;;0.70;0.50;;;;;;;8.02;82.06;95855.39;104956;1256;102399;-74
2023/12/25 05:35:56;;;;;;;0.80;0.70;;;;;;;8.04;81.96;95861.55;104926;1259;100093;-74
2023/12/25 05:38:24;;;;;;;0.50;0.50;;;;;;;8.04;81.87;95869.73;104916;1268;99653;-74
2023/12/25 05:40:51;;;;;;;0.70;0.70;;;;;;;8.05;81.86;95867.45;104925;1256;96562;-74
2023/12/25 05:43:19;;;;;;;1.00;0.70;;;;;;;8.06;81.85;95869.99;104929;1259;97908;-74
2023/12/25 05:45:47;;;;;;;0.80;0.70;;;;;;;8.06;81.68;95874.13;104965;1259;102421;-79
2023/12/25 05:48:15;;;;;;;1.00;0.90;;;;;;;8.05;81.56;95873.36;104985;1256;101342;-80
2023/12/25 05:50:42;;;;;;;0.60;0.60;;;;;;;8.07;81.46;95873.04;104881;1257;98970;-71
2023/12/25 05:53:10;;;;;;;1.00;0.70;;;;;;;8.09;81.35;95871.19;104907;1259;97482;-71
2023/12/25 05:55:38;;;;;;;1.00;0.80;;;;;;;8.09;81.31;95874.36;104981;1256;98053;-71
2023/12/25 05:58:06;;;;;;;0.70;0.70;;;;;;;8.11;81.47;95883.82;104954;1259;101768;-71
2023/12/25 06:00:33;;;;;;;0.60;0.60;;;;;;;8.14;81.32;95887.59;104947;1257;101056;-71
2023/12/25 06:03:01;;;;;;;1.80;0.50;;;;;;;8.16;81.26;95883.46;104987;1256;99409;-71
2023/12/25 06:05:29;;;;;;;3.40;0.60;;;;;;;8.18;81.23;95883.84;104953;1253;96642;-70
2023/12/25 06:07:57;;;;;;;2.20;0.50;;;;;;;8.21;81.17;95893.36;104933;1257;98027;-71
2023/12/25 06:10:24;;;;;;;0.50;0.50;;;;;;;8.24;80.83;95889.97;104975;1257;101893;-71
2023/12/25 06:12:52;;;;;;;0.70;0.60;;;;;;;8.25;80.96;95892.11;104979;1274;100290;-72
2023/12/25 06:15:20;;;;;;;0.50;0.50;;;;;;;8.24;80.66;95899.23;104910;1256;99013;-71
2023/12/25 06:17:47;;;;;;;0.70;0.70;;;;;;;8.26;80.40;95904.01;104923;1274;97798;-75
2023/12/25 06:20:15;;;;;;;0.90;0.50;;;;;;;8.28;80.39;95900.41;104969;1256;97071;-74
2023/12/25 06:22:43;;;;;;;0.70;0.50;;;;;;;8.31;80.35;95898.79;104970;1257;101901;-75
2023/12/25 06:25:10;;;;;;;1.10;0.50;;;;;;;8.32;80.25;95896.71;104984;1256;100058;-71
2023/12/25 06:27:38;;;;;;;0.60;0.40;;;;;;;8.34;79.96;95905.18;104937;1259;99791;-71
2023/12/25 06:30:06;;;;;;;0.60;0.40;;;;;;;8.36;80.06;95914.33;104901;1259;97411;-71
2023/12/25 06:32:34;;;;;;;0.70;0.70;;;;;;;8.38;79.67;95909.53;105020;1257;98129;-75
2023/12/25 06:35:02;;;;;;;1.80;0.40;;;;;;;8.42;79.26;95911.52;104982;1256;101294;-75
2023/12/25 06:37:29;;;;;;;0.60;0.50;;;;;;;8.46;78.48;95907.99;105030;1259;100623;-75
2023/12/25 06:39:57;;;;;;;2.00;0.60;;;;;;;8.54;78.67;95903.84;104926;1257;98986;-75
2023/12/25 06:42:25;;;;;;;0.90;0.70;;;;;;;8.59;78.73;95911.45;104974;1257;97167;-75
2023/12/25 06:44:52;;;;;;;1.40;0.80;;;;;;;8.62;78.76;95909.13;104966;1256;96988;-70
2023/12/25 06:47:20;;;;;;;1.20;0.80;;;;;;;8.65;78.68;95904.41;104954;1275;102227;-70
2023/12/25 06:49:48;;;;;;;1.80;0.60;;;;;;;8.67;78.42;95902.40;104966;1257;101673;-70
2023/12/25 06:52:16;;;;;;;1.30;0.70;;;;;;;8.67;78.43;95893.91;104958;1258;100046;-70
2023/12/25 06:54:43;;;;;;;1.20;0.60;;;;;;;8.66;78.49;95893.52;104975;1267;96565;-71
2023/12/25 06:57:14;;;;;;;1.30;0.70;;;;;;;8.68;78.84;95893.60;105048;1256;97258;-71
2023/12/25 06:59:42;;;;;;;1.40;1.00;;;;;;;8.72;78.68;95894.30;104960;1256;101228;-72
2023/12/25 07:02:10;;;;;;;1.40;1.20;;;;;;;8.73;78.68;95892.08;105024;1256;108273;-72
2023/12/25 07:04:38;;;;;;;1.40;1.00;;;;;;;8.73;77.97;95899.66;105029;1268;100087;-71
2023/12/25 07:07:05;;;;;;;2.20;1.50;;;;;;;8.74;77.31;95901.19;104982;1256;96574;-72
2023/12/25 07:09:33;;;;;;;2.70;1.70;;;;;;;8.75;77.55;95899.22;104965;1256;97265;-71
2023/12/25 07:12:02;;;;;;;5.20;2.90;;;;;;;8.76;77.32;95899.95;104972;1256;101016;-71
2023/12/25 07:14:30;;;;;;;4.70;2.30;;;;;;;8.76;77.73;95907.27;104995;1254;100034;-71
2023/12/25 07:16:57;;;;;;;2.70;2.20;;;;;;;8.77;77.87;95907.03;104951;1254;100128;-71
2023/12/25 07:19:25;;;;;;;3.60;2.30;;;;;;;8.78;77.58;95918.36;104979;1256;97814;-71
2023/12/25 07:21:52;;;;;;;4.00;2.20;;;;;;;8.80;77.60;95912.55;105072;1254;97785;-71
2023/12/25 07:24:20;;;;;;;2.40;1.90;;;;;;;8.82;77.30;95909.77;104996;1256;102293;-75
2023/12/25 07:26:48;;;;;;;3.20;1.90;;;;;;;8.84;77.32;95905.07;104959;1254;101423;-75
2023/12/25 07:29:16;;;;;;;3.20;2.10;;;;;;;8.84;76.54;95909.16;104991;1256;99891;-75
2023/12/25 07:31:44;;;;;;;4.70;3.10;;;;;;;8.86;76.61;95910.62;105000;1257;97513;-78
2023/12/25 07:34:12;;;;;;;4.50;3.00;;;;;;;8.87;76.16;95908.91;105092;1254;97166;-78
2023/12/25 07:36:40;;;;;;;2.00;1.60;;;;;;;8.88;76.29;95908.40;104946;1254;101305;-80
2023/12/25 07:39:08;;;;;;;1.80;1.50;;;;;;;8.90;75.73;95916.14;104960;1256;101453;-79
2023/12/25 07:41:36;;;;;;;2.60;1.30;;;;;;;8.94;76.09;95923.75;104987;1257;99652;-79
2023/12/25 07:44:04;;;;;;;1.50;1.00;;;;;;;9.00;76.66;95933.62;104905;1256;97525;-79
2023/12/25 07:46:32;;;;;;;1.10;1.00;;;;;;;9.06;76.38;95942.29;104987;1256;97502;-75
2023/12/25 07:48:59;;;;;;;1.90;1.20;;;;;;;9.10;76.32;95945.65;104933;1253;101191;-76
2023/12/25 07:51:27;;;;;;;1.20;0.90;;;;;;;9.11;75.94;95954.02;104956;1267;101550;-75
2023/12/25 07:53:55;;;;;;;1.20;0.80;;;;;;;9.10;75.48;95965.03;104947;1257;98903;-76
2023/12/25 07:56:23;;;;;;;2.70;1.50;;;;;;;9.07;74.74;95962.06;104955;1257;96794;-75
2023/12/25 07:58:51;;;;;;;1.50;1.30;;;;;;;9.08;75.45;95952.14;104914;1257;97095;-75
2023/12/25 08:01:22;;;;;;;2.80;1.90;;;;;;;9.10;75.67;95949.33;105105;1256;102375;-78
2023/12/25 08:03:51;;;;;;;1.60;1.20;;;;;;;9.14;75.75;95956.35;105058;1259;100265;-79
2023/12/25 08:06:19;;;;;;;2.10;1.50;;;;;;;9.17;75.47;95962.88;104952;1275;100340;-80
2023/12/25 08:08:48;;;;;;;2.50;1.80;;;;;;;9.19;75.60;95960.28;104990;1269;96574;-79
2023/12/25 08:11:16;;;;;;;1.70;1.50;;;;;;;9.21;74.87;95968.12;105009;1256;97218;-79
2023/12/25 08:13:44;;;;;;;3.40;2.20;;;;;;;9.23;74.96;95971.56;104993;1256;101029;-78
2023/12/25 08:16:11;;;;;;;2.80;1.80;;;;;;;9.24;74.79;95972.04;105070;1261;101445;-73
2023/12/25 08:18:39;;;;;;;2.00;1.50;;;;;;;9.27;74.81;95974.84;104862;1257;99479;-72
2023/12/25 08:21:07;;;;;;;2.00;1.30;;;;;;;9.31;74.98;95956.27;105024;1257;96639;-72
2023/12/25 08:23:35;;;;;;;2.10;1.70;;;;;;;9.34;74.93;95951.81;105174;1254;97105;-73
2023/12/25 08:26:03;;;;;;;2.30;1.10;;;;;;;9.39;75.18;95955.42;104983;1256;102165;-73
2023/12/25 08:28:30;;;;;;;1.60;1.20;;;;;;;9.45;75.30;95957.44;105004;1258;101468;-70
2023/12/25 08:30:58;;;;;;;2.90;1.90;;;;;;;9.51;74.89;95956.70;104924;1257;98659;-71
2023/12/25 08:33:26;;;;;;;3.90;2.00;;;;;;;9.58;74.77;95950.23;104985;1257;96573;-71
2023/12/25 08:35:54;;;;;;;3.10;1.90;;;;;;;9.65;74.38;95948.01;105046;1256;97070;-72
2023/12/25 08:38:21;;;;;;;2.30;1.30;;;;;;;9.74;74.74;95942.58;105011;1266;101936;-73
2023/12/25 08:40:49;;;;;;;2.10;1.20;;;;;;;9.85;74.75;95949.45;104957;1257;100304;-73
2023/12/25 08:43:17;;;;;;;2.60;1.20;;;;;;;9.95;74.81;95957.34;104941;1254;99884;-80
2023/12/25 08:45:44;;;;;;;1.50;1.20;;;;;;;10.04;74.36;95949.41;105110;1267;97913;-77
2023/12/25 08:48:12;;;;;;;1.80;1.00;;;;;;;10.10;73.79;95952.01;105016;1254;97091;-76
2023/12/25 08:50:40;;;;;;;1.70;1.10;;;;;;;10.17;73.93;95964.42;105002;1254;100009;-77
2023/12/25 08:53:08;;;;;;;2.60;1.80;;;;;;;10.24;73.50;95967.02;104967;1260;101283;-77
2023/12/25 08:55:35;;;;;;;3.20;1.50;;;;;;;10.31;73.09;95968.13;104933;1273;99108;-76
2023/12/25 08:58:04;;;;;;;3.80;1.70;;;;;;;10.33;71.87;95965.00;104969;1256;96802;-76
2023/12/25 09:00:32;;;;;;;2.70;1.80;;;;;;;10.38;71.80;95974.62;105065;1256;125098;-77
2023/12/25 09:02:59;;;;;;;2.10;1.40;;;;;;;10.42;70.98;95981.76;105021;1256;102488;-76
2023/12/25 09:05:27;;;;;;;2.80;1.60;;;;;;;10.45;71.15;95982.67;104995;1275;101293;-77
2023/12/25 09:07:55;;;;;;;2.70;1.70;;;;;;;10.45;70.65;95981.86;104915;1257;99835;-76
2023/12/25 09:10:22;;;;;;;4.20;1.90;;;;;;;10.45;70.45;95984.02;104919;1267;96584;-76
2023/12/25 09:12:50;;;;;;;3.60;2.30;;;;;;;10.43;69.47;95981.40;105034;1260;98186;-77
2023/12/25 09:15:18;;;;;;;3.00;1.70;;;;;;;10.45;70.21;95983.05;104857;1259;102026;-74
2023/12/25 09:17:47;;;;;;;2.90;1.90;;;;;;;10.51;70.54;95977.14;104983;1257;100325;-75
2023/12/25 09:20:14;;;;;;;2.60;1.50;;;;;;;10.55;69.86;95972.98;105024;1256;98904;-74
2023/12/25 09:22:44;;;;;;;4.30;2.30;;;;;;;10.52;69.45;95968.90;105034;1257;96666;-76
2023/12/25 09:25:12;;;;;;;3.70;2.60;;;;;;;10.48;69.21;95976.36;105059;1254;97087;-76
2023/12/25 09:27:39;;;;;;;4.10;2.60;;;;;;;10.44;69.52;95977.30;104956;1257;100921;-76
2023/12/25 09:30:08;;;;;;;4.40;2.80;;;;;;;10.39;69.33;95974.27;104957;1257;100067;-76
2023/12/25 09:32:36;;;;;;;6.60;3.90;;;;;;;10.36;69.91;95973.79;104977;1256;100039;-71
2023/12/25 09:35:05;;;;;;;2.70;1.50;;;;;;;10.29;69.44;95980.99;104967;1256;97081;-72
2023/12/25 09:37:32;;;;;;;3.10;1.50;;;;;;;10.23;69.20;95977.83;105064;1254;97789;-72
2023/12/25 09:40:00;;;;;;;3.40;1.60;;;;;;;10.23;69.78;95984.14;104974;1256;101903;-72
2023/12/25 09:42:28;;;;;;;3.50;1.80;;;;;;;10.20;69.67;95987.14;105030;1256;100380;-72
2023/12/25 09:44:55;;;;;;;4.20;1.90;;;;;;;10.15;69.60;95990.05;104930;1266;99516;-72
2023/12/25 09:47:24;;;;;;;2.20;1.80;;;;;;;10.13;70.28;95981.89;104932;1272;96580;-72
2023/12/25 09:49:54;;;;;;;2.70;1.70;;;;;;;10.17;70.32;95976.30;105069;1256;97215;-72
2023/12/25 09:52:24;;;;;;;3.00;1.90;;;;;;;10.20;70.63;95978.48;105086;1256;102127;-72
2023/12/25 09:54:52;;;;;;;2.90;1.40;;;;;;;10.23;70.33;95981.12;105011;1256;101621;-72
2023/12/25 09:57:22;;;;;;;3.70;1.50;;;;;;;10.24;70.40;95981.55;105036;1266;98555;-75
2023/12/25 09:59:52;;;;;;;3.00;2.10;;;;;;;10.27;70.55;95966.39;105022;1256;97479;-75
2023/12/25 10:02:23;;;;;;;4.50;2.30;;;;;;;10.29;70.03;95965.35;105003;1256;97077;-75
2023/12/25 10:04:51;;;;;;;4.20;2.40;;;;;;;10.27;69.64;95974.77;104984;1256;102251;-75
2023/12/25 10:07:20;;;;;;;4.70;2.40;;;;;;;10.24;69.89;95975.15;105044;1254;100028;-74
2023/12/25 10:09:50;;;;;;;3.80;2.20;;;;;;;10.19;70.10;95967.38;105009;1257;99518;-75
2023/12/25 10:12:17;;;;;;;6.20;3.50;;;;;;;10.14;70.31;95974.23;105052;1256;96832;-75
2023/12/25 10:14:45;;;;;;;7.00;4.20;;;;;;;10.13;70.51;95970.83;105123;1269;97138;-74
2023/12/25 10:17:13;;;;;;;6.20;3.20;;;;;;;10.13;70.42;95968.46;105206;1254;102185;-74
2023/12/25 10:19:55;;;;;;;5.60;3.60;;;;;;;10.13;70.51;95966.96;105093;1268;101493;-74
2023/12/25 10:22:32;;;;;;;4.20;2.40;;;;;;;10.16;70.96;95971.52;105011;1259;99943;-76
2023/12/25 10:25:07;;;;;;;6.20;3.30;;;;;;;10.18;70.97;95973.41;105009;1267;96987;-75
2023/12/25 10:27:35;;;;;;;4.00;2.30;;;;;;;10.17;70.64;95975.26;105043;1256;97055;-75
2023/12/25 10:30:04;;;;;;;3.00;1.70;;;;;;;10.12;70.18;95972.96;105068;1254;100752;-76
2023/12/25 10:32:32;;;;;;;2.60;2.00;;;;;;;10.06;70.18;95961.36;105020;1260;100319;-72
2023/12/25 10:35:14;;;;;;;3.80;2.40;;;;;;;10.04;70.62;95959.33;104972;1254;99565;-72
2023/12/25 10:37:45;;;;;;;4.00;2.60;;;;;;;10.04;70.79;95963.09;105081;1256;96565;-72
2023/12/25 10:40:18;;;;;;;3.50;2.00;;;;;;;10.05;71.01;95962.64;105159;1267;97109;-72
2023/12/25 10:42:49;;;;;;;2.50;1.60;;;;;;;10.08;71.09;95967.44;105067;1266;102241;-70
2023/12/25 10:45:22;;;;;;;3.10;2.00;;;;;;;10.07;70.81;95970.19;104960;1256;101318;-72
2023/12/25 10:47:52;;;;;;;2.10;1.90;;;;;;;10.05;70.80;95976.42;104959;1266;98975;-71
2023/12/25 10:50:22;;;;;;;2.70;1.80;;;;;;;10.00;70.76;95973.89;105235;1259;97205;-72
2023/12/25 10:52:51;;;;;;;3.40;2.00;;;;;;;9.97;70.81;95978.40;108736;1254;94762;-72
2023/12/25 10:55:26;;;;;;;3.50;2.30;;;;;;;9.94;70.48;95979.84;108738;1252;102182;-82
2023/12/25 10:57:55;;;;;;;7.40;3.30;;;;;;;9.91;70.55;95977.63;106283;1256;101572;-72
2023/12/25 11:00:23;;;;;;;3.80;2.60;;;;;;;9.90;71.00;95978.77;105023;1266;99059;-72
2023/12/25 11:02:55;;;;;;;2.60;1.90;;;;;;;9.89;70.88;95980.59;105004;1256;96558;-75
2023/12/25 11:05:25;;;;;;;3.20;1.60;;;;;;;9.86;70.64;95990.11;104991;1254;96558;-75
2023/12/25 11:07:53;;;;;;;3.20;2.10;;;;;;;9.83;70.64;96003.92;104998;1258;102125;-75
2023/12/25 11:10:21;;;;;;;3.70;2.10;;;;;;;9.82;71.05;96008.63;104916;1266;100277;-74
2023/12/25 11:12:50;;;;;;;6.10;3.10;;;;;;;9.80;71.00;96010.95;104945;1258;99851;-75
2023/12/25 11:15:18;;;;;;;3.60;2.60;;;;;;;9.78;71.10;96010.23;104993;1253;96686;-75
2023/12/25 11:17:46;;;;;;;5.60;3.10;;;;;;;9.75;71.24;96008.62;104960;1260;96981;-81
2023/12/25 11:20:13;;;;;;;14.90;6.70;;;;;;;9.74;71.47;96005.91;104957;1267;102266;-81
2023/12/25 11:22:44;;;;;;;12.60;5.70;;;;;;;9.72;71.58;96004.03;104948;1266;101226;-81
2023/12/25 11:25:17;;;;;;;33.60;16.20;;;;;;;9.71;71.61;95992.52;105021;1258;99941;-81
2023/12/25 11:27:52;;;;;;;20.30;10.50;;;;;;;9.70;71.56;95993.26;104936;1254;97599;-81
2023/12/25 11:30:23;;;;;;;12.30;7.40;;;;;;;9.68;71.50;95999.46;105043;1257;98345;-81
2023/12/25 11:32:52;;;;;;;7.10;4.40;;;;;;;9.67;71.65;95996.65;104963;1257;100984;-75